Time;durP1;ratioP1;P1;durP2;ratioP2;P2;SDS_P1;SDS_P2;PMS_P1;PMS_P2;Temp;Humidity;BMP_temperature;BMP_pressure;BME280_temperature;BME280_humidity;BME280_pressure;Samples;Min_cycle;Max_cycle;Signal;HPM_P1;HPM_P2
2022/03/07 00:02:10;;;;;;;16.57;11.80;;;6.30;43.10;;;;;;5072301;28;20040;-65
2022/03/07 00:04:36;;;;;;;21.00;12.43;;;6.30;43.00;;;;;;5072461;28;20048;-66
2022/03/07 00:07:02;;;;;;;16.27;11.47;;;6.20;42.90;;;;;;5073778;28;20128;-65
2022/03/07 00:09:28;;;;;;;19.17;12.60;;;6.20;43.00;;;;;;5075983;28;20439;-66
2022/03/07 00:11:53;;;;;;;18.17;11.27;;;6.20;43.10;;;;;;5075985;28;20029;-65
2022/03/07 00:14:19;;;;;;;20.23;11.37;;;6.20;43.20;;;;;;5076066;28;20032;-66
2022/03/07 00:16:46;;;;;;;16.73;11.23;;;6.20;43.30;;;;;;5076147;28;20060;-66
2022/03/07 00:19:11;;;;;;;14.97;10.97;;;6.20;43.20;;;;;;5075803;28;20053;-66
2022/03/07 00:21:38;;;;;;;17.43;11.50;;;6.20;43.10;;;;;;5076076;28;20052;-66
2022/03/07 00:24:06;;;;;;;18.63;10.90;;;6.20;43.30;;;;;;5075871;28;20044;-69
2022/03/07 00:26:31;;;;;;;16.33;11.30;;;6.10;43.20;;;;;;5076097;28;20488;-69
2022/03/07 00:28:57;;;;;;;17.73;11.80;;;6.10;43.20;;;;;;5079218;28;20055;-70
2022/03/07 00:31:23;;;;;;;16.07;10.87;;;6.10;43.50;;;;;;5077614;28;20033;-65
2022/03/07 00:33:50;;;;;;;17.13;11.47;;;6.10;43.90;;;;;;5075691;28;20042;-65
2022/03/07 00:36:16;;;;;;;18.20;11.50;;;6.10;44.00;;;;;;5075470;28;20028;-64
2022/03/07 00:38:41;;;;;;;17.33;11.50;;;6.10;44.10;;;;;;5075459;28;20047;-65
2022/03/07 00:41:09;;;;;;;16.50;11.23;;;6.10;44.10;;;;;;5075314;28;20041;-66
2022/03/07 00:43:35;;;;;;;19.07;12.33;;;6.10;44.10;;;;;;5075176;28;20052;-65
2022/03/07 00:46:01;;;;;;;17.17;10.83;;;6.00;44.00;;;;;;5075178;28;20477;-66
2022/03/07 00:48:27;;;;;;;15.70;10.63;;;6.00;44.30;;;;;;5074905;28;20082;-66
2022/03/07 00:50:52;;;;;;;17.53;11.33;;;6.00;44.50;;;;;;5075673;28;20036;-65
2022/03/07 00:53:24;;;;;;;17.03;11.93;;;6.00;44.30;;;;;;5075419;28;20040;-66
2022/03/07 00:55:51;;;;;;;17.20;12.03;;;6.00;44.50;;;;;;5075692;28;20032;-66
2022/03/07 00:58:17;;;;;;;17.40;11.23;;;6.00;44.40;;;;;;5075240;28;20396;-66
2022/03/07 01:00:43;;;;;;;18.57;12.33;;;6.00;44.00;;;;;;5075122;28;20126;-66
2022/03/07 01:03:10;;;;;;;20.40;12.63;;;6.00;43.80;;;;;;5074959;28;20389;-66
2022/03/07 01:05:36;;;;;;;14.90;11.10;;;6.00;43.60;;;;;;5075529;28;20036;-66
2022/03/07 01:08:02;;;;;;;18.63;11.37;;;6.00;43.80;;;;;;5075313;28;20032;-66
2022/03/07 01:10:28;;;;;;;16.93;11.33;;;6.00;44.00;;;;;;5075127;28;20083;-66
2022/03/07 01:12:54;;;;;;;15.13;11.03;;;5.90;43.90;;;;;;5075011;28;20036;-66
2022/03/07 01:15:20;;;;;;;17.53;11.07;;;5.90;44.20;;;;;;5074615;28;20035;-65
2022/03/07 01:17:46;;;;;;;16.57;11.23;;;5.90;44.90;;;;;;5074295;28;20032;-66
2022/03/07 01:20:12;;;;;;;18.10;11.33;;;5.90;44.50;;;;;;5074536;28;20045;-65
2022/03/07 01:22:41;;;;;;;16.07;10.53;;;5.80;44.20;;;;;;5074808;28;20397;-65
2022/03/07 01:25:08;;;;;;;18.93;12.17;;;5.80;44.40;;;;;;5074688;28;20036;-65
2022/03/07 01:27:34;;;;;;;17.43;12.40;;;5.80;44.40;;;;;;5073032;28;20032;-70
2022/03/07 01:30:00;;;;;;;16.80;12.20;;;5.80;44.00;;;;;;5073206;28;20036;-66
2022/03/07 01:32:26;;;;;;;19.67;11.60;;;5.80;43.80;;;;;;5074443;28;20036;-65
2022/03/07 01:34:51;;;;;;;17.70;12.30;;;5.70;43.80;;;;;;5074822;28;20385;-65
2022/03/07 01:37:17;;;;;;;16.77;11.30;;;5.70;43.90;;;;;;5074711;28;20123;-65
2022/03/07 01:39:44;;;;;;;17.83;11.57;;;5.70;43.50;;;;;;5074483;28;20036;-65
2022/03/07 01:42:10;;;;;;;18.37;12.43;;;5.70;43.60;;;;;;5074648;28;20123;-65
2022/03/07 01:44:36;;;;;;;18.83;12.10;;;5.70;43.30;;;;;;5074320;28;20091;-65
2022/03/07 01:47:03;;;;;;;18.53;12.13;;;5.70;43.50;;;;;;5074346;28;20028;-66
2022/03/07 01:49:29;;;;;;;20.37;12.10;;;5.60;44.00;;;;;;5074386;28;20036;-65
2022/03/07 01:51:56;;;;;;;21.10;12.73;;;5.60;44.40;;;;;;5074509;28;20036;-66
2022/03/07 01:54:22;;;;;;;17.93;11.60;;;5.60;44.30;;;;;;5074161;28;20060;-65
2022/03/07 01:56:50;;;;;;;18.17;12.10;;;5.50;44.40;;;;;;5073999;28;20508;-65
2022/03/07 01:59:19;;;;;;;16.77;11.33;;;5.50;44.40;;;;;;5071077;28;20103;-66
2022/03/07 02:01:45;;;;;;;21.67;12.23;;;5.50;44.20;;;;;;5071537;28;20037;-66
2022/03/07 02:04:11;;;;;;;16.90;11.53;;;5.40;44.40;;;;;;5071419;28;20095;-66
2022/03/07 02:06:38;;;;;;;19.00;12.43;;;5.40;43.80;;;;;;5071960;28;20069;-65
2022/03/07 02:09:05;;;;;;;16.37;11.67;;;5.40;44.00;;;;;;5072279;28;20097;-65
2022/03/07 02:11:32;;;;;;;18.67;11.87;;;5.40;44.10;;;;;;5071929;28;20469;-69
2022/03/07 02:13:58;;;;;;;22.93;12.07;;;5.40;44.10;;;;;;5072293;28;20036;-66
2022/03/07 02:16:23;;;;;;;20.23;12.13;;;5.40;43.70;;;;;;5072892;28;20040;-66
2022/03/07 02:18:51;;;;;;;17.00;11.87;;;5.40;43.80;;;;;;5072701;28;20049;-66
2022/03/07 02:21:18;;;;;;;18.77;12.00;;;5.40;43.80;;;;;;5072949;28;20036;-65
2022/03/07 02:23:45;;;;;;;17.60;12.17;;;5.40;43.80;;;;;;5072884;28;20051;-66
2022/03/07 02:26:16;;;;;;;18.80;12.67;;;5.40;43.70;;;;;;5073222;28;20571;-65
2022/03/07 02:28:43;;;;;;;19.93;12.30;;;5.40;43.60;;;;;;5073197;28;20032;-66
2022/03/07 02:31:09;;;;;;;17.40;12.17;;;5.40;43.40;;;;;;5073223;28;20131;-65
2022/03/07 02:33:36;;;;;;;17.83;12.30;;;5.40;43.30;;;;;;5073178;28;20068;-66
2022/03/07 02:36:02;;;;;;;21.37;12.50;;;5.30;43.40;;;;;;5073147;28;20043;-66
2022/03/07 02:38:28;;;;;;;16.47;11.90;;;5.30;44.20;;;;;;5073282;28;20072;-66
2022/03/07 02:40:53;;;;;;;18.70;12.30;;;5.30;44.30;;;;;;5072811;28;20056;-65
2022/03/07 02:43:19;;;;;;;19.53;12.77;;;5.30;44.90;;;;;;5072403;28;20036;-65
2022/03/07 02:45:46;;;;;;;21.70;11.73;;;5.30;45.10;;;;;;5073179;28;20530;-69
2022/03/07 02:48:11;;;;;;;16.27;11.37;;;5.20;45.10;;;;;;5073103;28;20032;-69
2022/03/07 02:50:37;;;;;;;18.80;11.67;;;5.20;45.20;;;;;;5072965;28;20039;-69
2022/03/07 02:53:03;;;;;;;19.53;12.87;;;5.20;44.90;;;;;;5072997;28;20115;-66
2022/03/07 02:55:30;;;;;;;21.77;11.83;;;5.20;44.90;;;;;;5072578;28;20040;-67
2022/03/07 02:57:56;;;;;;;17.83;11.53;;;5.20;44.50;;;;;;5072230;28;20111;-65
2022/03/07 03:00:23;;;;;;;19.30;11.53;;;5.20;44.50;;;;;;5072505;28;20029;-66
2022/03/07 03:02:48;;;;;;;20.87;12.63;;;5.20;44.70;;;;;;5072349;28;20067;-66
2022/03/07 03:05:14;;;;;;;17.63;12.20;;;5.10;44.70;;;;;;5072376;28;20087;-66
2022/03/07 03:07:40;;;;;;;19.03;11.87;;;5.10;44.90;;;;;;5072430;28;20385;-66
2022/03/07 03:10:07;;;;;;;19.10;12.30;;;5.10;45.00;;;;;;5073020;28;20043;-66
2022/03/07 03:12:33;;;;;;;18.03;11.97;;;5.10;45.00;;;;;;5072789;28;20362;-65
2022/03/07 03:14:58;;;;;;;19.03;12.53;;;5.10;45.00;;;;;;5072874;28;20032;-65
2022/03/07 03:17:25;;;;;;;20.53;12.33;;;5.10;44.80;;;;;;5073115;28;20044;-66
2022/03/07 03:19:51;;;;;;;17.30;12.10;;;5.00;44.80;;;;;;5072314;28;20139;-65
2022/03/07 03:22:19;;;;;;;19.03;12.17;;;5.00;44.80;;;;;;5072307;28;20120;-65
2022/03/07 03:24:48;;;;;;;19.40;12.47;;;5.00;44.80;;;;;;5072013;28;20087;-65
2022/03/07 03:27:14;;;;;;;21.50;12.40;;;5.00;44.80;;;;;;5071746;28;20499;-66
2022/03/07 03:29:40;;;;;;;19.90;12.90;;;5.00;44.60;;;;;;5072350;28;20051;-66
2022/03/07 03:32:06;;;;;;;18.20;12.93;;;4.90;44.50;;;;;;5072081;28;20440;-65
2022/03/07 03:34:32;;;;;;;17.10;13.07;;;5.00;44.30;;;;;;5072650;28;20115;-65
2022/03/07 03:36:57;;;;;;;19.77;12.63;;;4.90;44.30;;;;;;5071931;28;20103;-65
2022/03/07 03:39:23;;;;;;;19.13;13.07;;;4.90;44.10;;;;;;5072257;28;20036;-65
2022/03/07 03:41:49;;;;;;;18.63;12.97;;;4.90;44.40;;;;;;5073438;28;20075;-66
2022/03/07 03:44:14;;;;;;;17.53;12.03;;;4.90;44.50;;;;;;5076223;28;20044;-65
2022/03/07 03:46:40;;;;;;;21.83;13.90;;;4.90;44.60;;;;;;5076156;28;20067;-65
2022/03/07 03:49:06;;;;;;;22.00;13.87;;;4.90;45.00;;;;;;5075999;28;20029;-66
2022/03/07 03:51:34;;;;;;;20.50;13.23;;;4.90;44.80;;;;;;5076003;28;20477;-66
2022/03/07 03:54:00;;;;;;;18.87;12.83;;;4.90;45.00;;;;;;5074534;28;20362;-66
2022/03/07 03:56:26;;;;;;;22.27;13.43;;;4.90;44.90;;;;;;5076218;28;20060;-66
2022/03/07 03:58:52;;;;;;;23.77;13.73;;;4.80;45.00;;;;;;5076378;28;20067;-65
2022/03/07 04:01:18;;;;;;;18.47;13.17;;;4.80;45.10;;;;;;5076442;28;20059;-65
2022/03/07 04:03:43;;;;;;;23.37;13.57;;;4.80;45.10;;;;;;5076380;28;20043;-65
2022/03/07 04:06:09;;;;;;;18.47;12.70;;;4.70;45.00;;;;;;5076313;28;20611;-65
2022/03/07 04:08:35;;;;;;;20.80;13.67;;;4.70;45.40;;;;;;5075880;28;20037;-65
2022/03/07 04:11:01;;;;;;;19.63;13.40;;;4.60;45.60;;;;;;5076195;28;20497;-66
2022/03/07 04:13:26;;;;;;;20.20;12.90;;;4.60;45.60;;;;;;5075976;28;20029;-65
2022/03/07 04:15:52;;;;;;;20.57;13.60;;;4.60;45.60;;;;;;5075833;28;20040;-66
2022/03/07 04:18:18;;;;;;;20.50;13.57;;;4.60;45.80;;;;;;5075760;28;20033;-65
2022/03/07 04:20:43;;;;;;;20.33;13.77;;;4.60;45.60;;;;;;5076086;28;20048;-66
2022/03/07 04:23:10;;;;;;;19.77;12.93;;;4.50;45.20;;;;;;5076056;28;20033;-66
2022/03/07 04:25:35;;;;;;;22.07;13.83;;;4.50;46.10;;;;;;5075793;28;20519;-66
2022/03/07 04:28:01;;;;;;;20.50;13.43;;;4.50;45.70;;;;;;5075904;28;20032;-66
2022/03/07 04:30:27;;;;;;;21.13;14.07;;;4.50;45.70;;;;;;5075851;28;20099;-66
2022/03/07 04:32:53;;;;;;;21.70;14.10;;;4.50;46.10;;;;;;5075948;28;20040;-66
2022/03/07 04:35:19;;;;;;;25.03;14.63;;;4.40;46.80;;;;;;5074669;28;20033;-65
2022/03/07 04:37:45;;;;;;;18.43;13.27;;;4.40;46.30;;;;;;5072833;28;20047;-66
2022/03/07 04:40:14;;;;;;;21.97;14.33;;;4.40;46.00;;;;;;5074069;28;20107;-66
2022/03/07 04:42:42;;;;;;;20.47;13.43;;;4.40;46.20;;;;;;5072654;28;20036;-65
2022/03/07 04:45:09;;;;;;;19.10;13.07;;;4.40;46.30;;;;;;5072952;28;20041;-65
2022/03/07 04:47:34;;;;;;;20.93;13.43;;;4.40;46.60;;;;;;5072994;28;20040;-66
2022/03/07 04:50:00;;;;;;;19.50;13.77;;;4.30;46.70;;;;;;5072586;28;20036;-66
2022/03/07 04:52:26;;;;;;;20.40;13.90;;;4.30;46.50;;;;;;5072012;28;20032;-67
2022/03/07 04:54:52;;;;;;;21.03;14.37;;;4.30;46.90;;;;;;5073726;28;20177;-67
2022/03/07 04:57:17;;;;;;;22.13;14.53;;;4.20;47.10;;;;;;5072540;28;20477;-65
2022/03/07 04:59:45;;;;;;;24.20;14.70;;;4.20;47.30;;;;;;5074725;28;20491;-66
2022/03/07 05:02:13;;;;;;;19.87;13.67;;;4.20;47.00;;;;;;5075308;28;20163;-66
2022/03/07 05:04:39;;;;;;;20.50;14.10;;;4.20;47.00;;;;;;5075189;28;20084;-66
2022/03/07 05:07:04;;;;;;;19.97;13.90;;;4.20;46.90;;;;;;5075463;28;20043;-66
2022/03/07 05:09:31;;;;;;;25.27;17.17;;;4.10;47.00;;;;;;5075348;28;20104;-65
2022/03/07 05:11:57;;;;;;;24.73;17.23;;;4.10;47.60;;;;;;5075176;28;20033;-66
2022/03/07 05:14:23;;;;;;;26.30;17.77;;;4.10;47.30;;;;;;5075042;28;20116;-65
2022/03/07 05:16:48;;;;;;;22.37;15.20;;;4.00;47.20;;;;;;5075104;28;20040;-65
2022/03/07 05:19:14;;;;;;;22.33;14.13;;;4.00;46.90;;;;;;5074704;28;20082;-65
2022/03/07 05:21:40;;;;;;;23.37;14.30;;;4.10;46.80;;;;;;5075033;28;20107;-65
2022/03/07 05:24:06;;;;;;;22.60;15.40;;;4.10;47.00;;;;;;5073620;28;20504;-65
2022/03/07 05:26:32;;;;;;;23.07;15.10;;;4.10;47.10;;;;;;5073986;28;20071;-65
2022/03/07 05:28:58;;;;;;;18.83;13.30;;;4.10;47.40;;;;;;5073583;28;20040;-66
2022/03/07 05:31:24;;;;;;;24.37;14.37;;;4.10;47.20;;;;;;5073654;28;20385;-65
2022/03/07 05:33:50;;;;;;;23.77;14.27;;;4.10;47.20;;;;;;5073596;28;20612;-66
2022/03/07 05:36:15;;;;;;;20.97;14.93;;;4.10;47.30;;;;;;5073214;28;20555;-66
2022/03/07 05:38:41;;;;;;;27.80;14.60;;;4.10;47.30;;;;;;5073244;28;20064;-65
2022/03/07 05:41:07;;;;;;;19.93;14.07;;;4.10;47.20;;;;;;5072187;28;20028;-66
2022/03/07 05:43:34;;;;;;;22.33;14.63;;;4.10;47.50;;;;;;5072874;28;20040;-66
2022/03/07 05:46:00;;;;;;;27.17;15.33;;;4.10;47.00;;;;;;5073400;28;20076;-65
2022/03/07 05:48:26;;;;;;;25.20;15.37;;;4.10;46.80;;;;;;5073337;28;20139;-65
2022/03/07 05:50:51;;;;;;;22.73;14.00;;;4.10;46.50;;;;;;5073628;28;20054;-66
2022/03/07 05:53:21;;;;;;;20.93;14.30;;;4.10;46.50;;;;;;5072752;28;20034;-65
2022/03/07 05:55:48;;;;;;;21.00;14.20;;;4.10;46.50;;;;;;5072915;28;20488;-66
2022/03/07 05:58:14;;;;;;;19.97;13.97;;;4.10;46.70;;;;;;5072956;28;20102;-65
2022/03/07 06:00:39;;;;;;;23.53;15.70;;;4.10;46.60;;;;;;5074017;28;20068;-65
2022/03/07 06:03:06;;;;;;;24.47;15.13;;;4.10;47.10;;;;;;5074221;28;20111;-65
2022/03/07 06:05:31;;;;;;;21.43;14.87;;;4.10;47.20;;;;;;5073263;28;20048;-65
2022/03/07 06:07:58;;;;;;;23.37;15.27;;;4.10;47.20;;;;;;5074448;28;20047;-66
2022/03/07 06:10:24;;;;;;;20.73;15.00;;;4.10;47.10;;;;;;5074014;28;20041;-65
2022/03/07 06:12:49;;;;;;;20.43;14.50;;;4.10;47.20;;;;;;5073524;28;20659;-65
2022/03/07 06:15:15;;;;;;;25.43;15.57;;;4.10;46.80;;;;;;5073780;28;20032;-66
2022/03/07 06:17:55;;;;;;;24.23;14.87;;;4.10;46.80;;;;;;5073642;28;20473;-67
2022/03/07 06:20:23;;;;;;;25.07;15.83;;;4.10;46.90;;;;;;5073174;28;20516;-65
2022/03/07 06:22:49;;;;;;;25.00;15.07;;;4.10;46.80;;;;;;5072077;28;20036;-66
2022/03/07 06:25:15;;;;;;;23.50;15.63;;;4.10;46.90;;;;;;5071862;28;20040;-66
2022/03/07 06:27:41;;;;;;;23.30;14.57;;;4.10;47.00;;;;;;5071458;28;20085;-65
2022/03/07 06:30:08;;;;;;;25.27;15.20;;;4.20;47.50;;;;;;5071604;28;20548;-65
2022/03/07 06:32:35;;;;;;;25.77;14.87;;;4.20;47.70;;;;;;5083964;28;20119;-66
2022/03/07 06:35:02;;;;;;;25.97;15.80;;;4.20;47.60;;;;;;5074269;28;20032;-66
2022/03/07 06:37:27;;;;;;;23.77;16.33;;;4.20;47.50;;;;;;5092543;28;20036;-66
2022/03/07 06:39:53;;;;;;;23.03;15.77;;;4.30;47.30;;;;;;5092746;28;20397;-65
2022/03/07 06:42:19;;;;;;;22.97;15.50;;;4.30;46.80;;;;;;5092664;28;20081;-65
2022/03/07 06:44:44;;;;;;;28.63;15.63;;;4.30;46.70;;;;;;5092477;28;20052;-65
2022/03/07 06:47:11;;;;;;;26.13;15.30;;;4.40;46.50;;;;;;5092551;28;20472;-66
2022/03/07 06:49:39;;;;;;;25.23;15.47;;;4.40;46.60;;;;;;5092397;28;20032;-66
2022/03/07 06:52:05;;;;;;;26.77;15.80;;;4.50;46.60;;;;;;5092535;28;20041;-66
2022/03/07 06:54:31;;;;;;;23.83;15.40;;;4.50;46.50;;;;;;5092357;28;20036;-66
2022/03/07 06:56:57;;;;;;;21.83;15.27;;;4.50;46.50;;;;;;5092445;28;20119;-65
2022/03/07 06:59:22;;;;;;;26.30;15.60;;;4.50;46.30;;;;;;5092390;28;20028;-66
2022/03/07 07:01:49;;;;;;;24.23;15.10;;;4.60;46.20;;;;;;5092559;28;20063;-66
2022/03/07 07:04:14;;;;;;;24.67;15.80;;;4.60;46.20;;;;;;5092389;28;20055;-65
2022/03/07 07:06:40;;;;;;;21.73;15.43;;;4.70;46.00;;;;;;5092378;28;20032;-66
2022/03/07 07:09:06;;;;;;;20.77;15.67;;;4.70;46.00;;;;;;5092440;28;20451;-66
2022/03/07 07:11:31;;;;;;;25.43;16.23;;;4.70;45.90;;;;;;5092187;28;20040;-66
2022/03/07 07:13:57;;;;;;;24.00;15.57;;;4.70;45.80;;;;;;5092005;28;20079;-65
2022/03/07 07:16:23;;;;;;;21.70;15.63;;;4.70;45.90;;;;;;5091898;28;20055;-66
2022/03/07 07:18:49;;;;;;;22.17;15.60;;;4.80;45.90;;;;;;5049889;28;1154158;-66
2022/03/07 07:21:14;;;;;;;21.47;15.23;;;4.90;46.00;;;;;;5092889;28;20614;-66
2022/03/07 07:23:40;;;;;;;28.73;16.27;;;4.90;46.60;;;;;;5092885;28;20063;-66
2022/03/07 07:26:06;;;;;;;24.40;15.87;;;4.90;45.70;;;;;;5091239;28;20123;-67
2022/03/07 07:28:32;;;;;;;22.70;15.90;;;5.10;45.60;;;;;;5090191;28;20073;-67
2022/03/07 07:30:58;;;;;;;22.63;14.70;;;5.10;45.40;;;;;;5090106;28;20044;-66
2022/03/07 07:33:24;;;;;;;27.80;15.63;;;5.10;45.10;;;;;;5091739;28;20397;-66
2022/03/07 07:35:49;;;;;;;22.93;16.20;;;5.20;45.20;;;;;;5092889;28;20031;-66
2022/03/07 07:38:15;;;;;;;25.00;15.40;;;5.20;45.30;;;;;;5093056;28;20028;-66
2022/03/07 07:40:41;;;;;;;23.17;16.07;;;5.30;45.40;;;;;;5092754;28;20086;-66
2022/03/07 07:43:08;;;;;;;23.97;15.73;;;5.30;45.00;;;;;;5092726;28;20040;-66
2022/03/07 07:45:33;;;;;;;24.83;15.27;;;5.40;45.00;;;;;;5093038;28;20052;-66
2022/03/07 07:47:59;;;;;;;23.03;15.77;;;5.40;44.80;;;;;;5092544;28;20115;-68
2022/03/07 07:50:26;;;;;;;24.83;15.60;;;5.50;44.90;;;;;;5092964;28;20044;-66
2022/03/07 07:52:52;;;;;;;26.63;15.70;;;5.50;44.80;;;;;;5092891;28;20032;-63
2022/03/07 07:55:17;;;;;;;20.57;14.80;;;5.60;45.00;;;;;;5092555;28;20040;-63
2022/03/07 07:57:43;;;;;;;25.43;16.37;;;5.60;44.60;;;;;;5092341;28;20130;-62
2022/03/07 08:00:10;;;;;;;21.73;15.67;;;5.70;44.10;;;;;;5092905;28;20075;-64
2022/03/07 08:02:36;;;;;;;28.10;15.63;;;5.70;44.20;;;;;;5092765;28;20040;-62
2022/03/07 08:05:04;;;;;;;23.27;15.13;;;5.80;45.30;;;;;;5092041;28;20047;-63
2022/03/07 08:07:30;;;;;;;22.93;13.73;;;5.80;45.30;;;;;;5090172;28;20439;-63
2022/03/07 08:09:56;;;;;;;21.43;15.27;;;5.80;44.80;;;;;;5089944;28;20036;-62
2022/03/07 08:12:22;;;;;;;21.93;14.50;;;5.90;44.20;;;;;;5091587;28;20170;-62
2022/03/07 08:14:47;;;;;;;21.60;15.40;;;5.90;43.90;;;;;;5092606;28;20054;-62
2022/03/07 08:17:15;;;;;;;26.90;15.17;;;6.00;44.00;;;;;;5092720;28;20039;-62
2022/03/07 08:19:41;;;;;;;27.27;15.90;;;6.00;44.00;;;;;;5092339;28;20037;-63
2022/03/07 08:22:06;;;;;;;24.67;16.63;;;6.10;44.00;;;;;;5092534;28;20044;-62
2022/03/07 08:24:32;;;;;;;24.00;15.67;;;6.10;44.20;;;;;;5092261;28;20040;-63
2022/03/07 08:26:58;;;;;;;20.87;14.53;;;6.20;43.60;;;;;;5092548;28;20039;-62
2022/03/07 08:29:25;;;;;;;22.47;16.47;;;6.20;44.00;;;;;;5095751;28;20119;-62
2022/03/07 08:31:50;;;;;;;23.13;15.47;;;6.30;44.00;;;;;;5094867;28;20036;-66
2022/03/07 08:34:16;;;;;;;19.90;14.73;;;6.30;44.30;;;;;;5095243;28;20044;-75
2022/03/07 08:36:42;;;;;;;23.87;15.33;;;6.40;44.00;;;;;;5096000;28;20028;-63
2022/03/07 08:39:08;;;;;;;22.80;15.60;;;6.50;43.90;;;;;;5095308;28;20097;-66
2022/03/07 08:41:34;;;;;;;22.57;13.83;;;6.50;43.70;;;;;;5075068;28;20537;-74
2022/03/07 08:44:00;;;;;;;24.87;15.20;;;6.60;43.60;;;;;;5045758;28;20131;-63
2022/03/07 08:46:26;;;;;;;21.67;15.07;;;6.70;44.00;;;;;;5068174;28;20444;-75
2022/03/07 08:48:52;;;;;;;22.50;15.10;;;6.70;43.40;;;;;;5074852;28;20078;-64
2022/03/07 08:51:17;;;;;;;22.80;14.53;;;6.80;42.90;;;;;;5070909;28;20119;-62
2022/03/07 08:53:43;;;;;;;21.30;14.80;;;6.80;42.70;;;;;;5068056;28;20079;-63
2022/03/07 08:56:09;;;;;;;24.93;15.70;;;6.90;42.50;;;;;;5054882;28;20074;-63
2022/03/07 08:58:35;;;;;;;22.47;14.87;;;6.90;42.00;;;;;;5055116;28;20424;-62
2022/03/07 09:01:01;;;;;;;23.23;14.17;;;6.90;42.00;;;;;;5055364;28;20029;-63
2022/03/07 09:03:27;;;;;;;21.73;15.50;;;7.00;42.40;;;;;;5066875;28;20036;-66
2022/03/07 09:05:52;;;;;;;22.07;14.87;;;7.00;42.50;;;;;;5075232;28;20044;-63
2022/03/07 09:08:18;;;;;;;24.50;15.47;;;7.10;42.30;;;;;;5075041;28;20043;-75
2022/03/07 09:10:44;;;;;;;20.77;14.93;;;7.10;42.20;;;;;;5075387;28;20032;-63
2022/03/07 09:13:09;;;;;;;22.00;14.60;;;7.20;41.90;;;;;;5074837;28;20439;-63
2022/03/07 09:15:35;;;;;;;24.57;14.83;;;7.20;41.70;;;;;;5075157;28;20128;-63
2022/03/07 09:18:01;;;;;;;22.23;14.37;;;7.20;41.70;;;;;;5073752;28;20056;-63
2022/03/07 09:20:27;;;;;;;23.43;15.17;;;7.30;41.90;;;;;;5074741;28;20048;-63
2022/03/07 09:22:53;;;;;;;22.87;14.60;;;7.40;41.80;;;;;;5075331;28;20028;-63
2022/03/07 09:25:18;;;;;;;30.20;16.00;;;7.40;41.40;;;;;;5074915;28;20049;-63
2022/03/07 09:27:44;;;;;;;23.37;16.53;;;7.40;41.40;;;;;;5074975;28;20498;-63
2022/03/07 09:30:12;;;;;;;21.23;15.83;;;7.50;41.30;;;;;;5075172;28;20074;-62
2022/03/07 09:32:38;;;;;;;23.07;15.60;;;7.50;41.20;;;;;;5075034;28;20146;-63
2022/03/07 09:35:04;;;;;;;21.97;15.60;;;7.50;41.20;;;;;;5074578;28;20453;-63
2022/03/07 09:37:30;;;;;;;22.70;14.63;;;;;;;;;;5074621;28;20036;-63
2022/03/07 09:39:56;;;;;;;25.00;15.07;;;;;;;;;;5073709;28;20037;-62
2022/03/07 09:42:23;;;;;;;21.47;14.57;;;;;;;;;;5074535;28;20495;-63
2022/03/07 09:44:49;;;;;;;19.77;14.03;;;;;;;;;;5074497;28;20048;-63
2022/03/07 09:47:15;;;;;;;20.73;14.07;;;;;;;;;;5074588;28;20028;-64
2022/03/07 09:49:41;;;;;;;23.80;13.97;;;;;;;;;;5074592;28;20401;-63
2022/03/07 09:52:07;;;;;;;20.10;14.43;;;;;;;;;;5074494;28;20040;-63
2022/03/07 09:54:33;;;;;;;21.27;13.50;;;;;;;;;;5074090;28;20477;-63
2022/03/07 09:57:00;;;;;;;18.10;13.43;;;;;;;;;;5074154;28;20424;-64
2022/03/07 09:59:26;;;;;;;22.60;14.27;;;;;;;;;;5074128;28;20379;-62
2022/03/07 10:01:59;;;;;;;38.30;13.67;;;;;;;;;;5074058;28;20036;-63
2022/03/07 10:04:25;;;;;;;20.30;14.47;;;;;;;;;;5074126;28;20087;-63
2022/03/07 10:06:52;;;;;;;19.00;13.60;;;;;;;;;;5074181;28;20028;-69
2022/03/07 10:09:22;;;;;;;20.77;14.33;;;;;;;;;;5073835;28;20051;-63
2022/03/07 10:11:52;;;;;;;18.40;13.97;;;;;;;;;;5074306;28;20397;-63
2022/03/07 10:14:29;;;;;;;19.80;14.03;;;;;;;;;;5074115;28;20028;-63
2022/03/07 10:16:55;;;;;;;18.90;13.87;;;;;;;;;;5073889;28;20037;-63
2022/03/07 10:19:21;;;;;;;19.97;14.30;;;;;;;;;;5073959;28;20120;-63
2022/03/07 10:21:50;;;;;;;18.00;13.33;;;;;;;;;;5073744;28;20038;-63
2022/03/07 10:24:17;;;;;;;22.70;14.47;;;;;;;;;;5073961;28;20119;-63
2022/03/07 10:26:44;;;;;;;17.07;12.97;;;;;;;;;;5074089;28;20036;-64
2022/03/07 10:29:10;;;;;;;20.33;14.10;;;;;;;;;;5073199;28;20504;-63
2022/03/07 10:31:44;;;;;;;19.77;14.37;;;;;;;;;;5071945;28;20063;-63
2022/03/07 10:34:11;;;;;;;18.47;13.53;;;;;;;;;;5073567;28;20520;-75
2022/03/07 10:36:38;;;;;;;19.60;14.03;;;;;;;;;;5073194;28;20035;-66
2022/03/07 10:39:05;;;;;;;20.13;13.70;;;;;;;;;;5072957;28;20050;-63
2022/03/07 10:41:34;;;;;;;26.60;17.53;;;;;;;;;;5073198;28;20071;-62
2022/03/07 10:44:00;;;;;;;20.53;14.63;;;;;;;;;;5072520;28;20040;-63
2022/03/07 10:46:27;;;;;;;22.20;14.17;;;;;;;;;;5072669;28;20036;-68
2022/03/07 10:48:53;;;;;;;23.70;14.97;;;;;;;;;;5072416;28;20062;-63
2022/03/07 10:51:20;;;;;;;25.77;14.30;;;;;;;;;;5072089;28;20056;-72
2022/03/07 10:53:47;;;;;;;20.50;13.80;;;;;;;;;;5072555;28;20489;-64
2022/03/07 10:56:14;;;;;;;19.47;13.63;;;;;;;;;;5072805;28;20186;-70
2022/03/07 10:58:50;;;;;;;20.40;13.90;;;;;;;;;;5071945;28;20036;-67
2022/03/07 11:01:27;;;;;;;19.73;13.90;;;;;;;;;;5072798;28;20036;-63
2022/03/07 11:03:53;;;;;;;19.00;13.83;;;;;;;;;;5071789;28;20401;-63
2022/03/07 11:06:19;;;;;;;20.67;15.33;;;;;;;;;;5072366;28;20473;-65
2022/03/07 11:08:46;;;;;;;20.03;13.40;;;;;;;;;;5072288;28;20044;-63
2022/03/07 11:11:15;;;;;;;18.97;13.60;;;;;;;;;;5072411;28;20128;-71
2022/03/07 11:13:42;;;;;;;19.93;13.97;;;;;;;;;;5072889;28;20076;-65
2022/03/07 11:16:08;;;;;;;18.87;14.17;;;;;;;;;;5072904;28;20035;-71
2022/03/07 11:18:34;;;;;;;18.40;13.30;;;;;;;;;;5072407;28;20420;-64
2022/03/07 11:21:02;;;;;;;24.47;15.10;;;;;;;;;;5052602;28;20510;-63
2022/03/07 11:23:28;;;;;;;20.97;13.33;;;;;;;;;;5052808;28;20437;-63
2022/03/07 11:25:56;;;;;;;21.60;13.30;;;;;;;;;;5052404;28;20121;-64
2022/03/07 11:28:23;;;;;;;19.33;12.80;;;;;;;;;;5053134;28;20112;-63
2022/03/07 11:30:49;;;;;;;22.37;13.67;;;;;;;;;;5052690;28;20112;-63
2022/03/07 11:33:19;;;;;;;19.93;13.13;;;;;;;;;;5052853;28;20033;-63
2022/03/07 11:35:46;;;;;;;17.60;13.37;;;;;;;;;;5052693;28;20183;-63
2022/03/07 11:38:14;;;;;;;21.33;13.60;;;;;;;;;;5052715;28;20086;-65
2022/03/07 11:41:00;;;;;;;20.30;15.10;;;;;;;;;;5052916;28;20037;-73
2022/03/07 11:43:27;;;;;;;22.17;12.90;;;;;;;;;;5042177;28;20034;-64
2022/03/07 11:45:54;;;;;;;21.00;13.80;;;;;;;;;;5052773;28;20052;-64
2022/03/07 11:48:21;;;;;;;21.43;14.20;;;;;;;;;;5052642;28;20044;-64
2022/03/07 11:50:47;;;;;;;22.30;16.00;;;;;;;;;;5072109;28;20489;-68
2022/03/07 11:53:16;;;;;;;18.57;12.77;;;;;;;;;;5072462;28;20029;-63
2022/03/07 11:55:44;;;;;;;16.37;13.17;;;;;;;;;;5072309;28;20037;-64
2022/03/07 11:58:10;;;;;;;18.57;12.37;;;;;;;;;;5072580;28;20478;-64
2022/03/07 12:00:36;;;;;;;23.87;14.57;;;;;;;;;;5071788;28;20029;-64
2022/03/07 12:03:10;;;;;;;18.47;13.47;;;;;;;;;;5072799;28;20477;-64
2022/03/07 12:05:36;;;;;;;21.77;14.30;;;;;;;;;;5076164;28;20047;-73
2022/03/07 12:08:13;;;;;;;17.80;13.53;;;;;;;;;;5076366;28;20115;-64
2022/03/07 12:10:51;;;;;;;19.87;14.47;;;;;;;;;;5075888;28;20033;-72
2022/03/07 12:13:17;;;;;;;17.87;13.67;;;;;;;;;;5076163;28;20036;-63
2022/03/07 12:16:00;;;;;;;18.30;13.50;;;;;;;;;;5076651;28;20044;-70
2022/03/07 12:18:27;;;;;;;18.13;14.80;;;;;;;;;;5076474;28;20032;-64
2022/03/07 12:20:55;;;;;;;16.67;12.90;;;;;;;;;;5095632;28;20484;-64
2022/03/07 12:23:23;;;;;;;19.13;13.83;;;;;;;;;;5095969;28;20050;-69
2022/03/07 12:25:55;;;;;;;19.57;14.30;;;;;;;;;;5092639;28;20090;-64
2022/03/07 12:28:21;;;;;;;19.95;13.02;;;;;;;;;;5093158;28;20070;-63
2022/03/07 12:30:47;;;;;;;18.43;13.27;;;;;;;;;;5093088;28;20043;-63
2022/03/07 12:33:13;;;;;;;18.17;13.60;;;;;;;;;;5095622;28;20114;-71
2022/03/07 12:35:39;;;;;;;18.08;13.32;;;;;;;;;;5095746;28;20477;-63
2022/03/07 12:38:06;;;;;;;16.90;13.43;;;;;;;;;;5096139;28;20449;-64
2022/03/07 12:40:33;;;;;;;17.05;13.02;;;;;;;;;;5095727;28;20472;-69
2022/03/07 12:42:59;;;;;;;19.42;13.23;;;;;;;;;;5095625;28;20040;-63
2022/03/07 12:45:25;;;;;;;18.38;12.68;;;;;;;;;;5095674;28;20097;-69
2022/03/07 12:47:54;;;;;;;16.70;12.13;;;;;;;;;;5094901;28;20166;-63
2022/03/07 12:50:23;;;;;;;18.27;12.45;;;;;;;;;;5095499;28;20032;-63
2022/03/07 12:52:49;;;;;;;17.85;12.77;;;;;;;;;;5094908;28;20503;-63
2022/03/07 12:55:16;;;;;;;21.27;13.52;;;;;;;;;;5094828;28;20028;-64
2022/03/07 12:57:42;;;;;;;19.38;13.30;;;;;;;;;;5095345;28;20121;-63